Time;durP1;ratioP1;P1;durP2;ratioP2;P2;SDS_P1;SDS_P2;PMS_P1;PMS_P2;Temp;Humidity;BMP_temperature;BMP_pressure;BME280_temperature;BME280_humidity;BME280_pressure;Samples;Min_cycle;Max_cycle;Signal;HPM_P1;HPM_P2
2022/03/07 00:00:55;;;;;;;10.07;2.13;;;;;;;-12.16;65.09;98180.56;4862401;29;20201;-85
2022/03/07 00:03:21;;;;;;;2.75;2.05;;;;;;;-12.21;65.07;98187.47;4845547;29;20133;-85
2022/03/07 00:05:47;;;;;;;1.38;1.27;;;;;;;-12.29;65.72;98194.41;4845581;29;20061;-84
2022/03/07 00:08:14;;;;;;;1.63;1.50;;;;;;;-12.30;65.69;98183.22;4862257;29;20132;-85
2022/03/07 00:10:40;;;;;;;3.90;2.30;;;;;;;-12.27;65.41;98192.66;4829912;29;20068;-84
2022/03/07 00:13:06;;;;;;;3.38;2.45;;;;;;;-12.25;65.56;98196.09;4861858;29;20065;-83
2022/03/07 00:15:32;;;;;;;3.60;2.00;;;;;;;-12.22;65.36;98203.81;4845251;29;20053;-83
2022/03/07 00:17:57;;;;;;;5.63;3.22;;;;;;;-12.18;65.67;98194.31;4845246;29;20391;-85
2022/03/07 00:20:24;;;;;;;3.10;2.25;;;;;;;-12.16;65.38;98200.31;4845253;29;20076;-84
2022/03/07 00:22:50;;;;;;;5.35;3.15;;;;;;;-12.08;65.55;98209.69;4844931;29;20054;-84
2022/03/07 00:25:17;;;;;;;7.60;3.28;;;;;;;-12.02;65.26;98211.38;4829926;29;20148;-83
2022/03/07 00:27:42;;;;;;;4.30;2.90;;;;;;;-11.93;65.52;98208.69;4861712;29;20057;-83
2022/03/07 00:30:12;;;;;;;4.05;2.50;;;;;;;-11.83;65.15;98200.00;4861135;29;20094;-83
2022/03/07 00:32:39;;;;;;;4.47;2.90;;;;;;;-11.81;64.75;98197.38;4829720;29;20065;-83
2022/03/07 00:35:05;;;;;;;5.85;3.47;;;;;;;-11.72;64.76;98202.47;4861251;29;20144;-82
2022/03/07 00:37:32;;;;;;;4.82;2.90;;;;;;;-11.72;64.67;98202.47;4814711;29;20510;-83
2022/03/07 00:39:57;;;;;;;4.43;2.78;;;;;;;-11.65;64.04;98208.44;4845114;29;20140;-83
2022/03/07 00:42:23;;;;;;;5.32;2.92;;;;;;;-11.68;64.05;98219.63;4844951;29;20137;-83
2022/03/07 00:44:49;;;;;;;5.40;3.25;;;;;;;-11.68;63.67;98209.31;4844802;29;20102;-84
2022/03/07 00:47:15;;;;;;;6.80;3.70;;;;;;;-11.65;63.46;98206.69;4861470;29;20065;-83
2022/03/07 00:49:42;;;;;;;3.22;2.60;;;;;;;-11.63;63.67;98207.53;4845162;29;20053;-83
2022/03/07 00:52:08;;;;;;;3.83;2.78;;;;;;;-11.53;63.70;98219.47;4829816;29;20148;-83
2022/03/07 00:54:34;;;;;;;5.43;2.95;;;;;;;-11.56;63.71;98204.00;4861145;29;20217;-83
2022/03/07 00:57:00;;;;;;;6.63;3.33;;;;;;;-11.46;63.50;98209.94;4844795;29;20056;-81
2022/03/07 00:59:26;;;;;;;8.68;3.65;;;;;;;-11.46;63.84;98209.09;4844673;29;20518;-84
2022/03/07 01:01:52;;;;;;;5.00;3.38;;;;;;;-11.45;63.83;98208.22;4844413;29;20196;-83
2022/03/07 01:04:20;;;;;;;3.67;2.83;;;;;;;-11.39;63.35;98213.31;4844899;29;20057;-83
2022/03/07 01:06:46;;;;;;;8.32;3.20;;;;;;;-11.34;63.72;98219.28;4861162;29;20386;-85
2022/03/07 01:09:11;;;;;;;5.38;3.05;;;;;;;-11.29;63.73;98220.06;4829153;29;20053;-83
2022/03/07 01:11:37;;;;;;;6.00;2.90;;;;;;;-11.21;63.11;98231.16;4861098;29;20143;-83
2022/03/07 01:14:03;;;;;;;5.30;3.10;;;;;;;-11.21;63.05;98223.41;4845666;29;20073;-84
2022/03/07 01:16:29;;;;;;;4.82;3.15;;;;;;;-11.16;62.87;98226.81;4830168;29;20073;-84
2022/03/07 01:18:55;;;;;;;4.70;2.33;;;;;;;-11.09;62.28;98240.50;4844542;29;20070;-83
2022/03/07 01:21:21;;;;;;;5.13;3.20;;;;;;;-11.18;61.69;98244.03;4844302;29;20052;-80
2022/03/07 01:23:47;;;;;;;6.95;3.00;;;;;;;-11.28;61.04;98245.88;4844295;29;20062;-85
2022/03/07 01:26:13;;;;;;;4.28;3.08;;;;;;;-11.46;60.70;98245.19;4860742;29;20062;-84
2022/03/07 01:28:39;;;;;;;4.10;2.78;;;;;;;-11.41;61.09;98249.41;4843989;29;20113;-83
2022/03/07 01:31:04;;;;;;;5.47;2.90;;;;;;;-11.43;60.90;98251.19;4860580;29;20114;-84
2022/03/07 01:33:30;;;;;;;6.75;2.55;;;;;;;-11.68;60.48;98253.13;4860558;29;20088;-84
2022/03/07 01:35:56;;;;;;;5.18;3.47;;;;;;;-11.74;60.53;98248.00;4813908;29;20110;-83
2022/03/07 01:38:22;;;;;;;4.05;2.85;;;;;;;-11.72;61.00;98251.44;4844137;29;20562;-84
2022/03/07 01:40:50;;;;;;;5.97;2.97;;;;;;;-11.70;60.99;98267.72;4829028;29;20098;-85
2022/03/07 01:43:17;;;;;;;6.68;3.28;;;;;;;-11.69;61.64;98251.41;4847784;29;20092;-84
2022/03/07 01:45:44;;;;;;;3.60;2.80;;;;;;;-11.56;61.31;98262.47;4864549;29;20090;-83
2022/03/07 01:48:10;;;;;;;4.00;2.58;;;;;;;-11.45;61.49;98267.53;4833329;29;20080;-86
2022/03/07 01:50:36;;;;;;;5.35;3.20;;;;;;;-11.40;61.45;98258.00;4849826;29;20057;-88
2022/03/07 01:53:04;;;;;;;5.05;3.03;;;;;;;-11.39;61.46;98260.59;4832155;29;20114;-83
2022/03/07 01:55:31;;;;;;;6.28;2.85;;;;;;;-11.69;61.15;98261.72;4817199;29;20063;-84
2022/03/07 01:58:00;;;;;;;3.72;2.50;;;;;;;-11.92;61.29;98261.06;4847541;29;20089;-84
2022/03/07 02:00:27;;;;;;;3.60;2.53;;;;;;;-12.00;61.40;98258.56;4847267;29;20087;-84
2022/03/07 02:02:54;;;;;;;5.45;2.38;;;;;;;-12.12;61.60;98264.66;4832531;29;20049;-84
2022/03/07 02:05:41;;;;;;;4.75;2.78;;;;;;;-12.00;62.13;98280.06;4847713;29;20076;-85
2022/03/07 02:08:13;;;;;;;5.93;3.00;;;;;;;-12.07;62.09;98272.34;4818071;29;20061;-83
2022/03/07 02:10:48;;;;;;;4.03;2.78;;;;;;;-11.84;62.36;98279.94;4833070;29;20117;-84
2022/03/07 02:13:17;;;;;;;5.18;2.95;;;;;;;-11.72;62.43;98294.41;4847336;29;20513;-84
2022/03/07 02:15:57;;;;;;;5.00;3.03;;;;;;;-11.59;62.27;98289.13;4832902;29;20060;-83
2022/03/07 02:18:29;;;;;;;3.63;2.58;;;;;;;-11.44;62.19;98295.00;4847643;29;20057;-83
2022/03/07 02:21:05;;;;;;;5.95;3.10;;;;;;;-11.35;61.75;98300.09;4847630;29;20132;-84
2022/03/07 02:23:31;;;;;;;3.13;2.30;;;;;;;-11.29;61.58;98307.75;4817700;29;20053;-91
2022/03/07 02:25:57;;;;;;;4.70;2.70;;;;;;;-11.22;61.13;98306.00;4832077;29;20053;-84
2022/03/07 02:28:24;;;;;;;11.63;3.08;;;;;;;-11.23;61.18;98299.97;4847240;29;20061;-85
2022/03/07 02:30:53;;;;;;;7.22;3.20;;;;;;;-11.14;60.90;98304.19;4847309;29;20468;-80
2022/03/07 02:33:19;;;;;;;7.82;3.22;;;;;;;-11.07;60.92;98316.16;4846824;29;20066;-79
2022/03/07 02:35:45;;;;;;;9.65;3.42;;;;;;;-10.99;60.52;98318.66;4846502;29;20577;-84
2022/03/07 02:38:14;;;;;;;5.28;2.85;;;;;;;-11.03;60.45;98318.69;4831104;29;20060;-85
2022/03/07 02:40:44;;;;;;;6.53;3.47;;;;;;;-10.97;60.18;98324.66;4831662;29;20153;-85
2022/03/07 02:43:10;;;;;;;6.43;2.60;;;;;;;-10.98;59.95;98321.25;4846870;29;20072;-85
2022/03/07 02:45:35;;;;;;;14.98;3.67;;;;;;;-10.92;59.92;98331.47;4863149;29;20119;-85
2022/03/07 02:48:01;;;;;;;8.13;2.85;;;;;;;-10.86;59.68;98330.56;4846753;29;20103;-84
2022/03/07 02:50:27;;;;;;;5.70;3.20;;;;;;;-10.86;59.22;98333.16;4817049;29;20071;-85
2022/03/07 02:52:56;;;;;;;5.93;3.58;;;;;;;-10.93;59.49;98324.63;4846743;29;20502;-86
2022/03/07 02:55:22;;;;;;;4.43;2.78;;;;;;;-10.86;59.38;98336.59;4832102;29;20049;-84
2022/03/07 02:57:48;;;;;;;7.00;3.13;;;;;;;-10.81;59.46;98344.28;4863189;29;20102;-82
2022/03/07 03:00:14;;;;;;;11.30;3.05;;;;;;;-10.81;59.25;98344.28;4868512;29;20113;-83
2022/03/07 03:02:41;;;;;;;6.93;3.50;;;;;;;-10.89;58.74;98353.81;4841284;29;20541;-82
2022/03/07 03:05:07;;;;;;;13.43;3.10;;;;;;;-10.97;59.10;98355.63;4851871;29;20543;-81
2022/03/07 03:07:33;;;;;;;6.75;3.60;;;;;;;-11.27;58.84;98350.75;4845361;29;20054;-84
2022/03/07 03:10:00;;;;;;;4.90;3.03;;;;;;;-11.15;59.21;98354.06;4819291;29;20057;-87
2022/03/07 03:12:27;;;;;;;13.13;2.95;;;;;;;-11.09;59.26;98360.03;4828978;29;20061;-83
2022/03/07 03:14:53;;;;;;;5.75;3.55;;;;;;;-11.11;59.25;98361.78;4828478;29;20085;-80
2022/03/07 03:17:20;;;;;;;5.50;2.80;;;;;;;-10.98;59.31;98361.66;4812774;29;20057;-81
2022/03/07 03:19:46;;;;;;;5.30;3.33;;;;;;;-11.06;58.88;98360.00;4828055;29;20049;-81
2022/03/07 03:22:12;;;;;;;19.23;3.55;;;;;;;-10.91;59.77;98373.63;4827884;29;20050;-78
2022/03/07 03:24:38;;;;;;;5.72;3.03;;;;;;;-10.72;59.91;98369.97;4797561;29;20525;-78
2022/03/07 03:27:05;;;;;;;5.82;3.42;;;;;;;-10.60;59.20;98375.03;4827788;29;20053;-80
2022/03/07 03:29:31;;;;;;;5.47;3.30;;;;;;;-10.44;59.12;98369.69;4812901;29;20198;-80
2022/03/07 03:31:57;;;;;;;5.13;2.92;;;;;;;-10.27;58.79;98367.72;4827890;29;20113;-84
2022/03/07 03:34:24;;;;;;;11.05;4.20;;;;;;;-10.13;58.21;98378.72;4827142;29;20050;-84
2022/03/07 03:36:50;;;;;;;12.10;3.00;;;;;;;-10.09;58.34;98377.81;4864235;29;20065;-79
2022/03/07 03:39:16;;;;;;;15.48;3.63;;;;;;;-10.07;57.79;98386.41;4848807;29;20118;-78
2022/03/07 03:41:42;;;;;;;6.82;3.10;;;;;;;-9.92;57.60;98384.50;4828446;29;20054;-80
2022/03/07 03:44:09;;;;;;;4.85;2.80;;;;;;;-9.89;57.62;98381.84;4844352;29;20065;-80
2022/03/07 03:46:35;;;;;;;5.07;2.75;;;;;;;-9.89;56.88;98389.59;4845496;29;20088;-87
2022/03/07 03:49:00;;;;;;;5.63;3.15;;;;;;;-9.86;57.08;98390.41;4830114;29;20054;-80
2022/03/07 03:51:26;;;;;;;5.20;2.95;;;;;;;-10.03;56.13;98398.41;4843906;29;20455;-82
2022/03/07 03:53:52;;;;;;;6.78;2.83;;;;;;;-10.04;56.63;98395.84;4813791;29;20054;-83
2022/03/07 03:56:18;;;;;;;10.65;3.40;;;;;;;-9.96;56.84;98403.53;4844460;29;20407;-78
2022/03/07 03:58:44;;;;;;;4.68;2.72;;;;;;;-9.86;57.13;98399.91;4813227;29;20069;-82
2022/03/07 04:01:10;;;;;;;5.30;2.72;;;;;;;-9.75;56.95;98410.97;4829426;29;20053;-85
2022/03/07 04:03:35;;;;;;;6.68;3.10;;;;;;;-9.71;57.13;98410.03;4827724;29;20061;-82
2022/03/07 04:06:04;;;;;;;6.10;3.60;;;;;;;-9.58;57.02;98400.41;4828591;29;20467;-83
2022/03/07 04:08:42;;;;;;;4.17;3.20;;;;;;;-9.32;56.85;98418.97;4844225;29;20132;-83
2022/03/07 04:11:09;;;;;;;6.72;3.05;;;;;;;-9.24;56.39;98421.44;4797301;29;20307;-85
2022/03/07 04:13:35;;;;;;;4.60;2.80;;;;;;;-9.31;56.27;98419.81;4826897;29;20102;-83
2022/03/07 04:16:02;;;;;;;4.43;2.83;;;;;;;-9.41;55.81;98426.00;4796749;29;20053;-83
2022/03/07 04:18:28;;;;;;;19.90;4.00;;;;;;;-9.38;56.37;98428.56;4812288;29;20053;-84
2022/03/07 04:20:54;;;;;;;6.68;4.15;;;;;;;-9.20;56.66;98425.69;4829015;29;20057;-84
2022/03/07 04:23:20;;;;;;;14.15;3.47;;;;;;;-9.08;56.52;98435.84;4841602;29;20112;-83
2022/03/07 04:25:48;;;;;;;5.95;3.00;;;;;;;-9.09;55.83;98421.19;4796808;29;20111;-83
2022/03/07 04:28:17;;;;;;;7.57;3.53;;;;;;;-9.03;56.16;98443.53;4814056;29;20494;-82
2022/03/07 04:30:43;;;;;;;7.50;3.13;;;;;;;-9.08;55.61;98443.59;4854681;29;20058;-82
2022/03/07 04:33:11;;;;;;;4.50;3.17;;;;;;;-9.12;55.42;98448.84;4841032;29;20140;-82
2022/03/07 04:35:37;;;;;;;5.05;2.97;;;;;;;-9.18;55.68;98436.84;4806473;29;20121;-85
2022/03/07 04:38:03;;;;;;;7.60;3.47;;;;;;;-9.04;55.25;98454.75;4817837;29;20050;-91
2022/03/07 04:40:29;;;;;;;11.18;3.33;;;;;;;-8.98;55.72;98459.00;4852309;29;20215;-88
2022/03/07 04:42:58;;;;;;;5.32;3.58;;;;;;;-9.02;54.99;98457.34;4830868;29;20058;-89
2022/03/07 04:45:24;;;;;;;18.65;3.22;;;;;;;-9.19;55.08;98461.03;4816380;29;20058;-86
2022/03/07 04:47:50;;;;;;;13.15;3.28;;;;;;;-9.09;55.54;98456.59;4847022;29;20057;-86
2022/03/07 04:50:16;;;;;;;3.45;2.63;;;;;;;-9.08;54.95;98469.50;4815834;29;20510;-86
2022/03/07 04:52:42;;;;;;;5.22;2.88;;;;;;;-9.22;54.35;98475.75;4830908;29;20546;-82
2022/03/07 04:55:10;;;;;;;5.47;3.00;;;;;;;-9.46;54.66;98476.97;4846953;29;20421;-88
2022/03/07 04:57:38;;;;;;;6.18;3.35;;;;;;;-9.44;54.72;98465.72;4817456;29;20060;-83
2022/03/07 05:00:09;;;;;;;6.50;3.08;;;;;;;-9.32;54.27;98490.56;4814423;29;20514;-83
2022/03/07 05:02:35;;;;;;;6.18;3.15;;;;;;;-9.10;55.06;98480.75;4830237;29;20057;-87
2022/03/07 05:05:01;;;;;;;6.72;3.55;;;;;;;-8.92;54.60;98477.00;4797634;29;20066;-84
2022/03/07 05:07:27;;;;;;;4.72;3.05;;;;;;;-8.80;53.78;98484.56;4826857;29;20054;-89
2022/03/07 05:09:52;;;;;;;2.88;2.13;;;;;;;-8.88;53.21;98468.31;4826776;29;20065;-86
2022/03/07 05:12:18;;;;;;;4.75;2.67;;;;;;;-8.98;53.81;98472.81;4843271;29;20046;-84
2022/03/07 05:14:44;;;;;;;6.18;3.33;;;;;;;-8.92;53.85;98479.59;4842766;29;20419;-83
2022/03/07 05:17:10;;;;;;;5.63;3.15;;;;;;;-8.68;53.90;98468.84;4842446;29;20054;-83
2022/03/07 05:19:36;;;;;;;6.63;3.13;;;;;;;-8.77;53.33;98478.50;4795812;29;20469;-86
2022/03/07 05:22:02;;;;;;;7.22;3.20;;;;;;;-8.54;53.66;98491.06;4811248;29;20532;-82
2022/03/07 05:24:28;;;;;;;3.92;2.75;;;;;;;-8.56;53.48;98479.00;4826725;29;20103;-84
2022/03/07 05:26:54;;;;;;;6.72;3.95;;;;;;;-8.35;53.41;98489.81;4826655;29;20057;-84
2022/03/07 05:29:20;;;;;;;4.18;2.45;;;;;;;-8.32;52.73;98493.22;4795962;29;20060;-84
2022/03/07 05:31:46;;;;;;;8.43;3.63;;;;;;;-8.45;52.98;98489.19;4811287;29;20057;-84
2022/03/07 05:34:11;;;;;;;4.72;2.90;;;;;;;-8.39;52.76;98485.63;4842858;29;20054;-84
2022/03/07 05:36:37;;;;;;;5.90;3.45;;;;;;;-8.35;53.13;98477.75;4812246;29;20110;-87
2022/03/07 05:39:04;;;;;;;6.60;3.85;;;;;;;-8.08;52.79;98478.97;4843331;29;20402;-86
2022/03/07 05:41:30;;;;;;;7.22;4.38;;;;;;;-7.56;52.85;98469.25;4796532;29;20144;-82
2022/03/07 05:43:56;;;;;;;8.02;3.85;;;;;;;-7.43;51.00;98472.47;4795855;29;20092;-84
2022/03/07 05:46:22;;;;;;;7.97;4.45;;;;;;;-7.22;52.15;98482.38;4825782;29;20085;-84
2022/03/07 05:48:48;;;;;;;6.32;3.38;;;;;;;-7.09;50.54;98483.78;4842437;29;20050;-84
2022/03/07 05:51:21;;;;;;;11.63;4.45;;;;;;;-7.09;50.26;98476.00;4842385;29;20062;-82
2022/03/07 05:53:46;;;;;;;7.28;3.33;;;;;;;-6.84;49.83;98485.84;4826703;29;20057;-85
2022/03/07 05:56:12;;;;;;;8.35;3.95;;;;;;;-7.05;49.64;98476.78;4827775;29;20049;-83
2022/03/07 05:58:38;;;;;;;6.53;3.80;;;;;;;-6.80;49.76;98487.47;4843442;29;20061;-84
2022/03/07 06:01:04;;;;;;;8.85;3.97;;;;;;;-6.99;49.73;98486.19;4795905;29;20449;-84
2022/03/07 06:03:30;;;;;;;7.55;3.95;;;;;;;-6.92;49.29;98477.34;4827323;29;20060;-85
2022/03/07 06:05:56;;;;;;;6.03;4.18;;;;;;;-6.81;49.12;98475.34;4796491;29;20054;-85
2022/03/07 06:08:22;;;;;;;10.32;4.22;;;;;;;-6.38;50.12;98477.72;4827541;29;20056;-84
2022/03/07 06:10:48;;;;;;;6.80;4.15;;;;;;;-6.08;49.40;98476.97;4826662;29;20507;-84
2022/03/07 06:13:14;;;;;;;5.88;4.50;;;;;;;-5.64;48.74;98484.38;4843206;29;20054;-84
2022/03/07 06:15:43;;;;;;;12.68;4.70;;;;;;;-5.29;47.80;98484.22;4797159;29;20129;-84
2022/03/07 06:18:11;;;;;;;5.35;3.47;;;;;;;-5.46;46.37;98482.97;4842378;29;20073;-84
2022/03/07 06:20:37;;;;;;;14.98;4.15;;;;;;;-5.68;47.09;98477.53;4810736;29;20514;-83
2022/03/07 06:23:04;;;;;;;7.75;4.03;;;;;;;-5.25;47.75;98481.47;4825487;29;20061;-84
2022/03/07 06:25:33;;;;;;;4.72;3.53;;;;;;;-4.95;47.89;98479.69;4842934;29;20057;-84
2022/03/07 06:28:03;;;;;;;6.07;4.10;;;;;;;-4.71;47.07;98485.84;4827352;29;20506;-84
2022/03/07 06:30:30;;;;;;;10.38;4.75;;;;;;;-4.60;47.27;98479.44;4814003;29;20050;-83
2022/03/07 06:32:56;;;;;;;9.35;3.50;;;;;;;-4.91;46.02;98485.66;4828965;29;20106;-84
2022/03/07 06:35:22;;;;;;;6.60;4.70;;;;;;;-4.67;47.16;98484.84;4832322;29;20144;-81
2022/03/07 06:37:49;;;;;;;8.05;3.85;;;;;;;-4.27;46.48;98504.41;4850385;29;20054;-82
2022/03/07 06:40:17;;;;;;;7.25;4.20;;;;;;;-4.20;46.00;98498.09;4817914;29;20054;-84
2022/03/07 06:42:43;;;;;;;4.63;3.50;;;;;;;-4.05;45.46;98508.91;4834697;29;20058;-84
2022/03/07 06:45:12;;;;;;;9.10;3.97;;;;;;;-4.15;45.41;98487.50;4820771;29;20125;-82
2022/03/07 06:47:39;;;;;;;7.63;4.43;;;;;;;-3.94;45.67;98506.78;4848504;29;20117;-84
2022/03/07 06:50:05;;;;;;;8.27;4.10;;;;;;;-3.82;45.16;98508.13;4846180;29;20146;-84
2022/03/07 06:52:32;;;;;;;6.63;4.07;;;;;;;-3.85;44.40;98509.06;4813032;29;20083;-84
2022/03/07 06:54:58;;;;;;;6.60;4.35;;;;;;;-4.28;45.18;98500.13;4844575;29;20050;-84
2022/03/07 06:57:24;;;;;;;7.10;4.50;;;;;;;-4.32;45.28;98508.94;4845147;29;20144;-84
2022/03/07 06:59:50;;;;;;;6.78;3.88;;;;;;;-4.02;44.73;98514.88;4827898;29;20153;-83
2022/03/07 07:02:16;;;;;;;15.95;4.65;;;;;;;-3.77;44.64;98519.25;4828005;29;20073;-84
2022/03/07 07:04:42;;;;;;;5.93;3.83;;;;;;;-4.57;42.96;98510.66;4827755;29;20419;-83
2022/03/07 07:07:09;;;;;;;7.90;4.57;;;;;;;-5.28;45.45;98511.97;4844811;29;20140;-83
2022/03/07 07:09:35;;;;;;;6.07;3.97;;;;;;;-5.36;46.27;98520.03;4844357;29;20086;-83
2022/03/07 07:12:02;;;;;;;3.78;3.17;;;;;;;-5.29;45.51;98526.75;4813578;29;20058;-85
2022/03/07 07:14:29;;;;;;;10.30;4.53;;;;;;;-5.35;46.16;98526.94;4844203;29;20060;-84
2022/03/07 07:16:55;;;;;;;7.00;4.55;;;;;;;-4.83;46.00;98507.13;4828634;29;20058;-85
2022/03/07 07:19:21;;;;;;;8.05;4.05;;;;;;;-5.09;45.09;98527.91;4798146;29;20105;-85
2022/03/07 07:21:47;;;;;;;5.75;3.90;;;;;;;-5.02;45.50;98527.69;4822217;29;20053;-84
2022/03/07 07:24:13;;;;;;;6.13;3.72;;;;;;;-4.87;45.10;98528.97;4844687;29;20088;-84
2022/03/07 07:26:39;;;;;;;3.20;2.63;;;;;;;-5.28;45.04;98531.06;4834833;29;20509;-84
2022/03/07 07:29:06;;;;;;;7.25;4.20;;;;;;;-5.21;46.48;98535.19;4813231;29;20061;-84
2022/03/07 07:31:32;;;;;;;6.18;3.65;;;;;;;-4.65;46.10;98516.97;4827989;29;20057;-82
2022/03/07 07:33:58;;;;;;;7.55;3.90;;;;;;;-4.10;45.04;98536.91;4843942;29;20064;-84
2022/03/07 07:36:23;;;;;;;6.60;4.00;;;;;;;-4.00;43.60;98539.16;4844691;29;20481;-82
2022/03/07 07:38:49;;;;;;;15.63;4.57;;;;;;;-3.96;44.40;98534.69;4826825;29;20105;-84
2022/03/07 07:41:15;;;;;;;9.13;4.00;;;;;;;-4.26;44.40;98532.22;4812211;29;20148;-83
2022/03/07 07:43:41;;;;;;;7.05;4.20;;;;;;;-3.87;44.43;98534.38;4844173;29;20062;-84
2022/03/07 07:46:07;;;;;;;6.38;3.63;;;;;;;-3.60;43.83;98531.72;4827695;29;20574;-84
2022/03/07 07:48:33;;;;;;;6.88;4.35;;;;;;;-3.54;42.96;98526.25;4843620;29;20210;-83
2022/03/07 07:50:59;;;;;;;7.70;4.40;;;;;;;-3.60;42.80;98526.50;4830010;29;20058;-84
2022/03/07 07:53:24;;;;;;;8.27;4.40;;;;;;;-3.42;42.93;98528.44;4827958;29;20060;-81
2022/03/07 07:55:50;;;;;;;6.75;4.47;;;;;;;-3.24;43.08;98530.34;4827310;29;20459;-82
2022/03/07 07:58:16;;;;;;;7.03;4.38;;;;;;;-4.13;42.16;98540.50;4843987;29;20065;-82
2022/03/07 08:00:42;;;;;;;5.63;4.03;;;;;;;-4.18;43.26;98539.78;4828303;29;20522;-86
2022/03/07 08:03:09;;;;;;;5.82;4.15;;;;;;;-3.70;42.88;98547.69;4812413;29;20080;-84
2022/03/07 08:05:35;;;;;;;7.50;4.10;;;;;;;-3.59;41.61;98551.69;4797164;29;20062;-84
2022/03/07 08:08:02;;;;;;;7.82;4.53;;;;;;;-3.30;42.45;98545.44;4810882;29;20429;-83
2022/03/07 08:10:27;;;;;;;6.85;3.97;;;;;;;-3.98;42.13;98552.19;4843465;29;20187;-84
2022/03/07 08:12:53;;;;;;;8.13;4.20;;;;;;;-3.63;42.48;98552.72;4827315;29;20148;-82
2022/03/07 08:15:20;;;;;;;6.35;4.05;;;;;;;-3.47;41.66;98548.63;4843068;29;20050;-84
2022/03/07 08:17:49;;;;;;;10.68;4.47;;;;;;;-3.32;42.29;98553.31;4843412;29;20586;-84
2022/03/07 08:20:18;;;;;;;6.35;3.83;;;;;;;-2.90;41.62;98555.22;4796677;29;20054;-83
2022/03/07 08:22:45;;;;;;;5.70;3.90;;;;;;;-2.60;41.20;98549.72;4845736;29;20053;-84
2022/03/07 08:25:11;;;;;;;6.22;4.10;;;;;;;-2.71;40.58;98551.00;4796726;29;20054;-84
2022/03/07 08:27:38;;;;;;;5.97;3.92;;;;;;;-2.58;41.50;98558.38;4844126;29;20046;-85
2022/03/07 08:30:07;;;;;;;7.80;4.53;;;;;;;-2.52;39.66;98550.25;4797315;29;20061;-84
2022/03/07 08:32:33;;;;;;;;;;;;;;;-2.73;40.18;98552.81;4827442;29;20096;-84
2022/03/07 08:34:59;;;;;;;6.35;3.63;;;;;;;-2.71;41.05;98551.00;4796540;29;20007;-85
2022/03/07 08:37:25;;;;;;;5.38;3.85;;;;;;;-2.56;40.95;98543.44;4811697;29;20102;-84
2022/03/07 08:39:51;;;;;;;4.88;3.92;;;;;;;-2.20;40.05;98549.81;4826805;29;20065;-85
2022/03/07 08:42:19;;;;;;;9.52;4.43;;;;;;;-2.85;40.02;98553.28;4811542;29;20426;-85
2022/03/07 08:44:45;;;;;;;8.70;4.68;;;;;;;-2.91;41.62;98558.75;4827426;29;20057;-85
2022/03/07 08:47:12;;;;;;;6.88;4.00;;;;;;;-3.23;40.86;98552.13;4826818;29;20446;-84
2022/03/07 08:49:38;;;;;;;8.48;4.35;;;;;;;-2.70;40.16;98554.47;4842837;29;20065;-84
2022/03/07 08:52:04;;;;;;;4.18;3.17;;;;;;;-2.74;39.40;98560.72;4811098;29;20074;-83
2022/03/07 08:54:30;;;;;;;8.65;4.22;;;;;;;-2.35;40.58;98553.06;4826298;29;20136;-84
2022/03/07 08:56:56;;;;;;;7.50;4.30;;;;;;;-1.85;40.24;98552.72;4826321;29;20057;-83
2022/03/07 08:59:24;;;;;;;7.38;4.90;;;;;;;-1.69;39.83;98557.31;4811041;29;20533;-83
2022/03/07 09:01:50;;;;;;;10.13;4.70;;;;;;;-1.28;39.05;98563.34;4842774;29;20514;-84
2022/03/07 09:04:16;;;;;;;7.32;4.03;;;;;;;-1.27;37.68;98550.19;4826311;29;20103;-83
2022/03/07 09:06:43;;;;;;;7.95;4.70;;;;;;;-1.53;39.37;98558.38;4826620;29;20475;-82
2022/03/07 09:09:09;;;;;;;7.57;4.13;;;;;;;-1.05;38.82;98564.97;4826415;29;20514;-85
2022/03/07 09:11:35;;;;;;;6.43;4.00;;;;;;;-0.71;37.64;98568.63;4810631;29;20086;-83
2022/03/07 09:14:01;;;;;;;9.90;4.30;;;;;;;-0.59;37.97;98576.81;4795709;29;20537;-82
2022/03/07 09:16:26;;;;;;;7.43;4.93;;;;;;;-0.85;37.26;98566.69;4826271;29;20058;-84
2022/03/07 09:18:52;;;;;;;6.63;4.53;;;;;;;-0.44;37.56;98575.25;4811011;29;20061;-83
2022/03/07 09:21:18;;;;;;;7.28;4.35;;;;;;;-0.58;36.79;98581.13;4811200;29;20053;-84
2022/03/07 09:23:46;;;;;;;7.97;4.13;;;;;;;-1.46;37.59;98580.78;4826385;29;20417;-82
2022/03/07 09:26:13;;;;;;;9.05;4.15;;;;;;;-1.49;38.05;98580.91;4842501;29;20050;-83
2022/03/07 09:28:39;;;;;;;6.75;4.03;;;;;;;-2.28;38.74;98585.94;4810813;29;20058;-83
2022/03/07 09:31:06;;;;;;;6.50;4.00;;;;;;;-2.91;40.60;98597.97;4844126;29;20057;-83
2022/03/07 09:33:32;;;;;;;7.43;4.38;;;;;;;-2.91;40.71;98587.50;4846637;29;20506;-84
2022/03/07 09:36:00;;;;;;;7.80;4.28;;;;;;;-2.39;39.99;98598.59;4815240;29;20114;-84
2022/03/07 09:38:28;;;;;;;8.13;3.78;;;;;;;-2.23;39.84;98594.44;4843203;29;20070;-82
2022/03/07 09:40:56;;;;;;;8.25;4.55;;;;;;;-2.24;39.62;98591.91;4799315;29;20426;-83
2022/03/07 09:43:23;;;;;;;6.25;4.10;;;;;;;-1.63;39.69;98598.97;4827920;29;20514;-86
2022/03/07 09:45:52;;;;;;;7.00;4.40;;;;;;;-1.39;39.43;98603.19;4826963;29;20054;-83
2022/03/07 09:48:17;;;;;;;8.65;5.15;;;;;;;-1.27;38.34;98600.00;4842927;29;20136;-83
2022/03/07 09:50:44;;;;;;;6.47;4.30;;;;;;;-1.12;38.23;98595.03;4843115;29;20447;-83
2022/03/07 09:53:10;;;;;;;5.82;4.13;;;;;;;-2.01;38.06;98593.56;4842304;29;20058;-83
2022/03/07 09:55:37;;;;;;;8.07;5.13;;;;;;;-1.72;38.60;98601.06;4810801;29;20053;-84
2022/03/07 09:58:05;;;;;;;4.72;3.47;;;;;;;-1.79;37.77;98597.00;4825961;29;20158;-83
2022/03/07 10:00:31;;;;;;;5.60;3.70;;;;;;;-1.94;37.79;98600.25;4842201;29;20085;-83
2022/03/07 10:03:05;;;;;;;5.55;4.07;;;;;;;-2.01;38.47;98620.59;4843767;29;20122;-81
2022/03/07 10:05:37;;;;;;;9.20;6.18;;;;;;;-1.68;38.73;98632.41;4814157;29;20065;-82
2022/03/07 10:08:05;;;;;;;5.70;4.07;;;;;;;-1.16;39.03;98624.94;4813856;29;20400;-82
2022/03/07 10:10:37;;;;;;;5.90;4.20;;;;;;;-0.99;36.63;98627.63;4845472;29;20058;-84
2022/03/07 10:13:08;;;;;;;6.38;4.00;;;;;;;-0.79;37.06;98627.59;4828870;29;20058;-81
2022/03/07 10:15:36;;;;;;;6.20;3.78;;;;;;;-0.88;36.75;98633.25;4828282;29;20109;-82
2022/03/07 10:18:03;;;;;;;7.20;3.72;;;;;;;-0.65;36.76;98636.59;4845166;29;20066;-82
2022/03/07 10:20:30;;;;;;;9.77;4.05;;;;;;;-0.56;36.95;98631.78;4829048;29;20057;-83
2022/03/07 10:23:00;;;;;;;7.18;4.05;;;;;;;-0.44;36.57;98625.13;4845379;29;20062;-82
2022/03/07 10:25:31;;;;;;;5.75;3.85;;;;;;;-0.19;35.99;98618.69;4798856;29;20430;-82
2022/03/07 10:28:01;;;;;;;7.95;4.40;;;;;;;-0.13;35.72;98636.78;4828271;29;20061;-82
2022/03/07 10:30:30;;;;;;;5.65;3.50;;;;;;;-0.37;35.10;98636.19;4844911;29;20511;-82
2022/03/07 10:32:58;;;;;;;5.75;3.95;;;;;;;-1.27;36.40;98647.22;4828795;29;20046;-83
2022/03/07 10:35:29;;;;;;;7.90;3.88;;;;;;;-0.83;37.46;98647.03;4813385;29;20061;-83
2022/03/07 10:38:01;;;;;;;7.13;3.70;;;;;;;-0.41;36.51;98648.63;4813706;29;20574;-82
2022/03/07 10:40:28;;;;;;;6.72;4.03;;;;;;;-0.20;35.82;98644.09;4828378;29;20049;-80
2022/03/07 10:42:54;;;;;;;6.78;3.78;;;;;;;0.26;36.10;98644.50;4798487;29;20054;-82
2022/03/07 10:45:22;;;;;;;5.55;3.60;;;;;;;0.53;35.38;98655.44;4813242;29;20430;-81
2022/03/07 10:47:57;;;;;;;8.27;4.05;;;;;;;0.62;36.11;98641.81;4828706;29;20062;-82
2022/03/07 10:50:26;;;;;;;7.43;3.60;;;;;;;0.71;35.10;98651.91;4813540;29;20148;-81
2022/03/07 10:52:57;;;;;;;4.88;3.22;;;;;;;1.14;33.87;98649.66;4827532;29;20056;-82
2022/03/07 10:55:25;;;;;;;6.45;3.20;;;;;;;1.07;33.65;98639.53;4828055;29;20106;-81
2022/03/07 10:57:51;;;;;;;3.90;2.92;;;;;;;1.47;32.74;98661.97;4828364;29;20629;-82
2022/03/07 11:00:18;;;;;;;4.63;3.35;;;;;;;1.56;32.26;98655.34;4828110;29;20099;-82
2022/03/07 11:02:46;;;;;;;3.88;2.95;;;;;;;0.93;32.40;98654.25;4813288;29;20472;-82
2022/03/07 11:05:13;;;;;;;8.35;4.45;;;;;;;0.80;32.33;98647.09;4813108;29;20118;-83
2022/03/07 11:07:42;;;;;;;7.57;3.70;;;;;;;1.42;33.61;98661.34;4828284;29;20136;-83
2022/03/07 11:10:10;;;;;;;6.28;3.13;;;;;;;1.55;32.31;98667.66;4827790;29;20061;-83
2022/03/07 11:12:36;;;;;;;4.38;3.45;;;;;;;1.15;32.09;98664.50;4802878;29;20062;-82
2022/03/07 11:15:10;;;;;;;5.90;2.95;;;;;;;1.39;31.62;98664.13;4832543;29;20058;-82
2022/03/07 11:17:43;;;;;;;7.32;3.60;;;;;;;1.15;32.00;98674.19;4826608;29;20050;-83
2022/03/07 11:20:13;;;;;;;4.38;3.25;;;;;;;1.13;32.43;98670.78;4845126;29;20549;-83
2022/03/07 11:22:39;;;;;;;8.52;3.42;;;;;;;1.40;31.69;98669.34;4812915;29;20057;-81
2022/03/07 11:25:07;;;;;;;5.05;3.05;;;;;;;1.85;31.72;98661.66;4844470;29;20057;-82
2022/03/07 11:27:36;;;;;;;6.03;3.97;;;;;;;2.08;31.06;98657.72;4797578;29;20069;-82
2022/03/07 11:30:24;;;;;;;4.07;3.07;;;;;;;2.26;30.85;98663.72;4827627;29;20057;-83